Time;durP1;ratioP1;P1;durP2;ratioP2;P2;SDS_P1;SDS_P2;PMS_P1;PMS_P2;Temp;Humidity;BMP_temperature;BMP_pressure;BME280_temperature;BME280_humidity;BME280_pressure;Samples;Min_cycle;Max_cycle;Signal;HPM_P1;HPM_P2
2020/12/11 00:03:41;;;;;;;23.52;19.75;;;;;;;;;;4920046;28;20838;31
2020/12/11 00:06:07;;;;;;;23.75;20.20;;;;;;;;;;4145211;34;20111;-57
2020/12/11 00:08:33;;;;;;;29.92;22.27;;;;;;;;;;4148540;34;20142;-58
2020/12/11 00:10:59;;;;;;;34.53;27.05;;;;;;;;;;4158871;34;20106;-57
2020/12/11 00:13:25;;;;;;;35.55;25.73;;;;;;;;;;4155218;34;20146;-57
2020/12/11 00:15:50;;;;;;;32.97;24.12;;;;;;;;;;4158074;34;20114;-57
2020/12/11 00:18:16;;;;;;;40.60;30.20;;;;;;;;;;4151469;34;20129;-57
2020/12/11 00:20:42;;;;;;;39.75;26.65;;;;;;;;;;4162413;34;20130;-58
2020/12/11 00:23:08;;;;;;;46.45;34.33;;;;;;;;;;4150323;34;20198;-58
2020/12/11 00:25:35;;;;;;;45.03;31.33;;;;;;;;;;4158471;34;20121;-57
2020/12/11 00:28:01;;;;;;;42.55;28.15;;;;;;;;;;4164005;34;20130;-57
2020/12/11 00:30:26;;;;;;;36.50;26.98;;;;;;;;;;4163718;34;20115;-58
2020/12/11 00:32:52;;;;;;;34.35;24.35;;;;;;;;;;4163763;34;20214;-58
2020/12/11 00:35:18;;;;;;;39.97;24.60;;;;;;;;;;4163607;34;20122;-58
2020/12/11 00:37:44;;;;;;;38.92;25.60;;;;;;;;;;4163910;34;20553;-58
2020/12/11 00:40:10;;;;;;;40.40;26.02;;;;;;;;;;4156696;34;20107;-57
2020/12/11 00:42:35;;;;;;;36.25;25.25;;;;;;;;;;4163470;34;20145;-57
2020/12/11 00:45:02;;;;;;;39.08;28.17;;;;;;;;;;4163691;34;20294;-57
2020/12/11 00:47:27;;;;;;;44.15;28.33;;;;;;;;;;4163545;34;20133;-57
2020/12/11 00:49:53;;;;;;;34.42;25.73;;;;;;;;;;4163676;34;20210;-57
2020/12/11 00:52:19;;;;;;;35.50;27.30;;;;;;;;;;4157652;34;20173;-58
2020/12/11 00:54:45;;;;;;;38.33;26.40;;;;;;;;;;4149595;34;20554;-57
2020/12/11 00:57:11;;;;;;;34.08;25.42;;;;;;;;;;4148646;34;20136;-58
2020/12/11 00:59:37;;;;;;;33.13;24.63;;;;;;;;;;4153251;34;20206;-58
2020/12/11 01:02:03;;;;;;;31.85;25.48;;;;;;;;;;4163598;34;20134;-57
2020/12/11 01:04:29;;;;;;;35.10;25.95;;;;;;;;;;4150634;34;20146;-57
2020/12/11 01:06:55;;;;;;;33.42;24.05;;;;;;;;;;4163710;34;20227;-58
2020/12/11 01:09:21;;;;;;;29.98;23.58;;;;;;;;;;4163432;34;20118;-58
2020/12/11 01:11:46;;;;;;;34.78;25.17;;;;;;;;;;4150717;34;20146;-58
2020/12/11 01:14:12;;;;;;;37.90;31.35;;;;;;;;;;4163163;34;20136;-58
2020/12/11 01:16:38;;;;;;;59.13;50.35;;;;;;;;;;4163465;34;20114;-58
2020/12/11 01:19:04;;;;;;;67.10;54.63;;;;;;;;;;4163502;34;20134;-58
2020/12/11 01:21:30;;;;;;;90.55;80.68;;;;;;;;;;4163348;34;20137;-58
2020/12/11 01:23:56;;;;;;;46.70;39.70;;;;;;;;;;4163484;34;20129;-58
2020/12/11 01:26:22;;;;;;;43.67;37.05;;;;;;;;;;4150551;34;20118;-57
2020/12/11 01:28:48;;;;;;;48.38;41.50;;;;;;;;;;4163080;34;20135;-58
2020/12/11 01:31:18;;;;;;;47.25;39.88;;;;;;;;;;4163221;34;20598;-57
2020/12/11 01:33:48;;;;;;;43.53;37.00;;;;;;;;;;4150796;34;20451;-58
2020/12/11 01:36:14;;;;;;;43.22;30.50;;;;;;;;;;4163211;34;20114;-58
2020/12/11 01:38:39;;;;;;;38.00;30.90;;;;;;;;;;4150526;34;20107;-58
2020/12/11 01:41:05;;;;;;;48.90;39.30;;;;;;;;;;4161626;34;20119;-58
2020/12/11 01:43:31;;;;;;;49.70;37.28;;;;;;;;;;4163682;34;20122;-58
2020/12/11 01:45:57;;;;;;;44.88;36.55;;;;;;;;;;4163071;34;20131;-58
2020/12/11 01:48:23;;;;;;;54.63;42.78;;;;;;;;;;4163037;34;20106;-58
2020/12/11 01:50:49;;;;;;;49.30;39.58;;;;;;;;;;4150299;34;20173;-58
2020/12/11 01:53:14;;;;;;;60.60;49.08;;;;;;;;;;4151754;34;20134;-58
2020/12/11 01:55:42;;;;;;;53.00;42.95;;;;;;;;;;4149538;34;20159;-57
2020/12/11 01:58:14;;;;;;;30.88;23.85;;;;;;;;;;4148142;34;20692;-58
2020/12/11 02:00:41;;;;;;;33.65;20.75;;;;;;;;;;4150374;34;20121;-58
2020/12/11 02:03:08;;;;;;;27.92;18.85;;;;;;;;;;4163295;34;20158;-58
2020/12/11 02:05:34;;;;;;;26.67;18.95;;;;;;;;;;4150921;34;20131;-58
2020/12/11 02:08:00;;;;;;;40.35;18.85;;;;;;;;;;4161594;34;20506;-58
2020/12/11 02:10:26;;;;;;;50.95;16.92;;;;;;;;;;4163070;34;20114;-58
2020/12/11 02:12:52;;;;;;;46.42;18.42;;;;;;;;;;4163116;34;20117;-58
2020/12/11 02:15:18;;;;;;;48.60;17.85;;;;;;;;;;4163113;34;20099;-53
2020/12/11 02:17:45;;;;;;;41.40;16.65;;;;;;;;;;4150848;34;20550;-57
2020/12/11 02:20:10;;;;;;;31.42;15.02;;;;;;;;;;4162611;34;20110;-57
2020/12/11 02:22:36;;;;;;;23.80;13.75;;;;;;;;;;4163133;34;20206;-57
2020/12/11 02:25:03;;;;;;;19.83;14.43;;;;;;;;;;4162826;34;20223;-57
2020/12/11 02:27:29;;;;;;;19.75;14.65;;;;;;;;;;4162865;34;20526;-56
2020/12/11 02:29:54;;;;;;;21.12;14.00;;;;;;;;;;4162674;34;20122;-55
2020/12/11 02:32:21;;;;;;;26.80;14.73;;;;;;;;;;4162766;34;20130;-59
2020/12/11 02:34:47;;;;;;;24.08;15.30;;;;;;;;;;4162680;34;20206;-59
2020/12/11 02:37:13;;;;;;;24.02;16.52;;;;;;;;;;4150124;34;20126;-59
2020/12/11 02:39:39;;;;;;;21.45;17.00;;;;;;;;;;4161832;34;20550;-57
2020/12/11 02:42:06;;;;;;;24.37;15.68;;;;;;;;;;4162804;34;20115;-59
2020/12/11 02:44:32;;;;;;;25.12;16.48;;;;;;;;;;4163022;34;20114;-59
2020/12/11 02:46:58;;;;;;;20.40;11.98;;;;;;;;;;4163118;34;20103;-58
2020/12/11 02:49:24;;;;;;;22.33;12.23;;;;;;;;;;4162520;34;20566;-60
2020/12/11 02:51:49;;;;;;;31.08;12.73;;;;;;;;;;4159306;34;20134;-60
2020/12/11 02:54:15;;;;;;;19.70;11.85;;;;;;;;;;4148516;34;20541;-61
2020/12/11 02:56:41;;;;;;;22.48;13.05;;;;;;;;;;4149142;34;20115;-55
2020/12/11 02:59:07;;;;;;;23.25;18.37;;;;;;;;;;4149314;34;20198;-59
2020/12/11 03:01:33;;;;;;;29.65;20.85;;;;;;;;;;4162789;34;20207;-58
2020/12/11 03:03:59;;;;;;;28.00;22.02;;;;;;;;;;4162468;34;20218;-59
2020/12/11 03:06:32;;;;;;;30.55;21.08;;;;;;;;;;4162784;34;20635;-59
2020/12/11 03:08:59;;;;;;;30.27;20.42;;;;;;;;;;4161294;34;20114;-59
2020/12/11 03:11:25;;;;;;;29.27;19.58;;;;;;;;;;4162032;34;20125;-60
2020/12/11 03:13:52;;;;;;;20.90;18.20;;;;;;;;;;4155758;34;20195;-57
2020/12/11 03:16:17;;;;;;;23.30;18.60;;;;;;;;;;4137428;34;20122;-59
2020/12/11 03:18:44;;;;;;;27.00;20.45;;;;;;;;;;4149181;34;20205;-59
2020/12/11 03:21:10;;;;;;;24.70;17.85;;;;;;;;;;4156423;34;20597;-60
2020/12/11 03:23:36;;;;;;;19.40;17.17;;;;;;;;;;4133842;34;20152;-59
2020/12/11 03:26:03;;;;;;;21.00;18.20;;;;;;;;;;4146965;34;20219;-60
2020/12/11 03:28:30;;;;;;;23.92;18.92;;;;;;;;;;4121209;34;20117;-59
2020/12/11 03:30:56;;;;;;;28.60;19.75;;;;;;;;;;4150750;34;20130;-59
2020/12/11 03:33:22;;;;;;;30.80;21.25;;;;;;;;;;4158772;34;20130;-58
2020/12/11 03:35:48;;;;;;;34.22;22.95;;;;;;;;;;4149578;34;20135;-59
2020/12/11 03:38:14;;;;;;;38.17;23.40;;;;;;;;;;4140624;34;20175;-59
2020/12/11 03:40:39;;;;;;;41.42;26.20;;;;;;;;;;4149308;34;20111;-58
2020/12/11 03:43:05;;;;;;;35.50;26.55;;;;;;;;;;4149127;34;20163;-59
2020/12/11 03:45:31;;;;;;;41.67;28.25;;;;;;;;;;4149345;34;20119;-59
2020/12/11 03:47:57;;;;;;;39.50;27.95;;;;;;;;;;4149220;34;20139;-59
2020/12/11 03:50:23;;;;;;;34.65;26.37;;;;;;;;;;4149962;34;20110;-58
2020/12/11 03:52:49;;;;;;;39.55;27.77;;;;;;;;;;4151479;34;20111;-55
2020/12/11 03:55:15;;;;;;;31.87;23.55;;;;;;;;;;4151524;34;20107;-57
2020/12/11 03:57:41;;;;;;;34.13;23.33;;;;;;;;;;4151450;34;20129;-57
2020/12/11 04:00:07;;;;;;;39.50;22.70;;;;;;;;;;4151618;34;20158;-58
2020/12/11 04:02:36;;;;;;;31.02;20.33;;;;;;;;;;4151336;34;20209;-58
2020/12/11 04:05:05;;;;;;;32.60;20.58;;;;;;;;;;4159103;34;20467;-58
2020/12/11 04:07:32;;;;;;;31.83;18.80;;;;;;;;;;4164950;34;20130;-58
2020/12/11 04:09:58;;;;;;;28.67;18.67;;;;;;;;;;4164087;34;20105;-58
2020/12/11 04:12:23;;;;;;;28.05;17.45;;;;;;;;;;4165178;34;20222;-57
2020/12/11 04:14:49;;;;;;;26.10;17.40;;;;;;;;;;4165266;34;20134;-57
2020/12/11 04:17:15;;;;;;;20.77;15.73;;;;;;;;;;4165127;34;20136;-58
2020/12/11 04:19:41;;;;;;;27.33;15.57;;;;;;;;;;4164894;34;20602;-57
2020/12/11 04:22:07;;;;;;;25.50;16.00;;;;;;;;;;4164853;34;20111;-57
2020/12/11 04:24:33;;;;;;;32.50;16.92;;;;;;;;;;4152177;34;20122;-58
2020/12/11 04:26:59;;;;;;;26.33;16.42;;;;;;;;;;4164911;34;20214;-57
2020/12/11 04:29:25;;;;;;;20.37;15.68;;;;;;;;;;4164822;34;20181;-58
2020/12/11 04:31:55;;;;;;;26.12;15.32;;;;;;;;;;4164807;34;20122;-58
2020/12/11 04:34:20;;;;;;;22.70;14.45;;;;;;;;;;4164761;34;20552;-57
2020/12/11 04:36:51;;;;;;;22.25;14.35;;;;;;;;;;4164746;34;20126;-57
2020/12/11 04:39:17;;;;;;;22.27;14.68;;;;;;;;;;4164750;34;20122;-58
2020/12/11 04:41:43;;;;;;;20.65;13.75;;;;;;;;;;4164711;34;20123;-58
2020/12/11 04:44:09;;;;;;;23.17;15.10;;;;;;;;;;4164586;34;20531;-58
2020/12/11 04:46:35;;;;;;;15.35;13.40;;;;;;;;;;4164671;34;20214;-57
2020/12/11 04:49:01;;;;;;;16.42;13.98;;;;;;;;;;4140869;34;20145;-57
2020/12/11 04:51:30;;;;;;;22.27;13.85;;;;;;;;;;4152025;34;20507;-58
2020/12/11 04:53:57;;;;;;;21.05;14.25;;;;;;;;;;4164511;34;20198;-58
2020/12/11 04:56:23;;;;;;;21.35;14.23;;;;;;;;;;4164596;34;20111;-58
2020/12/11 04:58:55;;;;;;;21.62;13.85;;;;;;;;;;4152086;34;20484;-57
2020/12/11 05:01:32;;;;;;;22.33;14.02;;;;;;;;;;4152345;34;20129;-58
2020/12/11 05:03:59;;;;;;;19.02;14.02;;;;;;;;;;4164049;34;20106;-57
2020/12/11 05:06:25;;;;;;;20.92;13.27;;;;;;;;;;4164400;34;20117;-58
2020/12/11 05:09:12;;;;;;;22.95;14.90;;;;;;;;;;4151820;34;20133;-58
2020/12/11 05:11:37;;;;;;;;;;;;;;;;;;4164574;34;20118;-58
2020/12/11 05:14:03;;;;;;;17.77;13.00;;;;;;;;;;4151632;34;20013;-57
2020/12/11 05:16:29;;;;;;;21.33;13.70;;;;;;;;;;4151810;34;20209;-58
2020/12/11 05:19:03;;;;;;;22.65;14.20;;;;;;;;;;4164482;34;20647;-58
2020/12/11 05:21:30;;;;;;;21.55;14.85;;;;;;;;;;4164342;34;20086;-58
2020/12/11 05:24:05;;;;;;;24.48;15.32;;;;;;;;;;4140619;34;20456;-58
2020/12/11 05:26:32;;;;;;;35.25;14.13;;;;;;;;;;4164308;34;20091;-58
2020/12/11 05:28:59;;;;;;;24.17;13.73;;;;;;;;;;4164264;34;20198;-58
2020/12/11 05:31:25;;;;;;;22.70;13.50;;;;;;;;;;4164331;34;20138;-58
2020/12/11 05:34:08;;;;;;;23.55;12.88;;;;;;;;;;4151830;34;20122;-58
2020/12/11 05:36:47;;;;;;;21.12;14.02;;;;;;;;;;4164202;34;20095;-58
2020/12/11 05:39:17;;;;;;;54.35;15.45;;;;;;;;;;4151582;34;20145;-57
2020/12/11 05:41:43;;;;;;;21.27;14.02;;;;;;;;;;4164389;34;20129;-58
2020/12/11 05:44:31;;;;;;;35.47;13.75;;;;;;;;;;4164262;34;20202;-57
2020/12/11 05:46:59;;;;;;;17.77;14.85;;;;;;;;;;4164220;34;20193;-58
2020/12/11 05:49:26;;;;;;;21.20;13.55;;;;;;;;;;4164177;34;20098;-57
2020/12/11 05:52:10;;;;;;;29.27;15.50;;;;;;;;;;4164242;34;20601;-58
2020/12/11 05:54:43;;;;;;;22.17;15.05;;;;;;;;;;4164160;34;20125;-58
2020/12/11 05:57:10;;;;;;;23.58;15.63;;;;;;;;;;4164372;34;20111;-58
2020/12/11 05:59:36;;;;;;;28.33;16.20;;;;;;;;;;4164128;34;20184;-57
2020/12/11 06:02:02;;;;;;;20.40;14.52;;;;;;;;;;4164352;34;20455;-57
2020/12/11 06:04:28;;;;;;;20.77;15.10;;;;;;;;;;4151410;34;20215;-58
2020/12/11 06:06:59;;;;;;;21.55;14.45;;;;;;;;;;4164384;34;20114;-58
2020/12/11 06:09:35;;;;;;;16.12;13.00;;;;;;;;;;4163893;34;20138;-58
2020/12/11 06:12:03;;;;;;;19.50;13.75;;;;;;;;;;4164086;34;20126;-58
2020/12/11 06:14:53;;;;;;;20.42;14.48;;;;;;;;;;4163059;34;20507;-58
2020/12/11 06:17:21;;;;;;;16.90;13.00;;;;;;;;;;4151539;34;20152;-58
2020/12/11 06:19:47;;;;;;;20.88;15.07;;;;;;;;;;4163891;34;20113;-58
2020/12/11 06:22:13;;;;;;;17.98;14.00;;;;;;;;;;4140321;34;20508;-57
2020/12/11 06:24:39;;;;;;;21.33;15.13;;;;;;;;;;4163893;34;20130;-58
2020/12/11 06:27:05;;;;;;;19.58;13.98;;;;;;;;;;4164106;34;20134;-58
2020/12/11 06:29:39;;;;;;;21.20;13.93;;;;;;;;;;4163724;34;20153;-57
2020/12/11 06:32:07;;;;;;;18.42;14.13;;;;;;;;;;4164113;34;20126;-57
2020/12/11 06:34:33;;;;;;;18.83;14.43;;;;;;;;;;4163801;34;20133;-58
2020/12/11 06:36:59;;;;;;;16.52;14.23;;;;;;;;;;4151156;34;20209;-57
2020/12/11 06:39:45;;;;;;;17.50;13.62;;;;;;;;;;4151120;34;20551;-58
2020/12/11 06:42:30;;;;;;;;;;;;;;;;;;4164047;34;20493;-58
2020/12/11 06:45:25;;;;;;;16.15;13.20;;;;;;;;;;4163639;34;20054;-58
2020/12/11 06:47:56;;;;;;;17.62;14.18;;;;;;;;;;4163821;34;20118;-58
2020/12/11 06:50:24;;;;;;;19.62;15.00;;;;;;;;;;4163790;34;20110;-58
2020/12/11 06:52:50;;;;;;;20.02;15.02;;;;;;;;;;4163498;34;20147;-58
2020/12/11 06:55:16;;;;;;;21.98;14.77;;;;;;;;;;4163752;34;20122;-58
2020/12/11 06:57:43;;;;;;;20.35;16.65;;;;;;;;;;4163517;34;20215;-58
2020/12/11 07:00:32;;;;;;;22.80;17.77;;;;;;;;;;4163248;34;20219;-57
2020/12/11 07:03:14;;;;;;;26.23;18.08;;;;;;;;;;4151148;34;20098;-56
2020/12/11 07:05:40;;;;;;;23.73;16.60;;;;;;;;;;4163262;34;20191;-58
2020/12/11 07:08:12;;;;;;;26.50;17.62;;;;;;;;;;4163269;34;20106;-58
2020/12/11 07:10:38;;;;;;;24.55;17.87;;;;;;;;;;4163570;34;20110;-58
2020/12/11 07:13:08;;;;;;;25.23;17.00;;;;;;;;;;4163266;34;20524;-59
2020/12/11 07:15:35;;;;;;;21.23;16.58;;;;;;;;;;4163497;34;20102;-58
2020/12/11 07:18:00;;;;;;;21.35;16.70;;;;;;;;;;4163233;34;20094;-58
2020/12/11 07:20:26;;;;;;;26.83;17.30;;;;;;;;;;4163508;34;20103;-58
2020/12/11 07:22:54;;;;;;;22.30;16.23;;;;;;;;;;4163201;34;20118;-57
2020/12/11 07:25:21;;;;;;;20.55;16.23;;;;;;;;;;4163967;34;20514;-58
2020/12/11 07:28:07;;;;;;;23.52;16.67;;;;;;;;;;4165216;34;20106;-57
2020/12/11 07:30:32;;;;;;;21.30;15.75;;;;;;;;;;4164940;34;20535;-58
2020/12/11 07:32:58;;;;;;;21.37;15.45;;;;;;;;;;4165212;34;20162;-58
2020/12/11 07:35:24;;;;;;;23.40;15.57;;;;;;;;;;4165073;34;20433;-58
2020/12/11 07:37:52;;;;;;;18.27;13.52;;;;;;;;;;4152475;34;20185;-57
2020/12/11 07:40:18;;;;;;;16.40;13.98;;;;;;;;;;4165034;34;20460;-58
2020/12/11 07:42:44;;;;;;;26.08;17.87;;;;;;;;;;4164999;34;20134;-58
2020/12/11 07:45:10;;;;;;;20.58;13.20;;;;;;;;;;4164883;34;20460;-57
2020/12/11 07:47:36;;;;;;;20.12;14.00;;;;;;;;;;4165005;34;20122;-57
2020/12/11 07:50:05;;;;;;;20.67;14.27;;;;;;;;;;4164953;34;20130;-58
2020/12/11 07:52:32;;;;;;;19.10;13.00;;;;;;;;;;4164958;34;20177;-58
2020/12/11 07:54:58;;;;;;;20.33;12.25;;;;;;;;;;4165155;34;20214;-57
2020/12/11 07:57:24;;;;;;;18.27;13.68;;;;;;;;;;4165071;34;20125;-57
2020/12/11 08:00:15;;;;;;;21.00;13.52;;;;;;;;;;4164683;34;20130;-57
2020/12/11 08:02:41;;;;;;;18.23;13.57;;;;;;;;;;4152272;34;20211;-57
2020/12/11 08:05:07;;;;;;;21.12;13.77;;;;;;;;;;4164546;34;20126;-57
2020/12/11 08:07:33;;;;;;;18.20;13.50;;;;;;;;;;4165131;34;20623;-58
2020/12/11 08:10:14;;;;;;;18.85;13.43;;;;;;;;;;4164929;34;20623;-58
2020/12/11 08:12:40;;;;;;;19.42;13.93;;;;;;;;;;4164816;34;20118;-50
2020/12/11 08:15:06;;;;;;;16.75;13.35;;;;;;;;;;4164893;34;20111;-57
2020/12/11 08:17:33;;;;;;;23.83;13.38;;;;;;;;;;4164704;34;20193;-63
2020/12/11 08:20:00;;;;;;;18.10;13.05;;;;;;;;;;4164717;34;20216;-57
2020/12/11 08:22:40;;;;;;;18.20;13.10;;;;;;;;;;4164897;34;20198;-57
2020/12/11 08:25:19;;;;;;;17.10;12.60;;;;;;;;;;4164559;34;20668;-57
2020/12/11 08:27:45;;;;;;;18.50;14.30;;;;;;;;;;4164549;34;20098;-59
2020/12/11 08:30:13;;;;;;;19.85;14.48;;;;;;;;;;4164846;34;20137;-59
2020/12/11 08:32:40;;;;;;;22.08;13.35;;;;;;;;;;4164927;34;20141;-59
2020/12/11 08:35:16;;;;;;;19.70;13.52;;;;;;;;;;4164476;34;20111;-58
2020/12/11 08:37:51;;;;;;;;;;;;;;;;;;4164269;34;20102;-58
2020/12/11 08:40:17;;;;;;;17.08;14.40;;;;;;;;;;4164773;34;19983;-58
2020/12/11 08:43:26;;;;;;;17.15;14.07;;;;;;;;;;4164548;34;20114;-58
2020/12/11 08:51:04;;;;;;;21.83;15.35;;;;;;;;;;4164627;34;20146;-57
2020/12/11 08:53:34;;;;;;;21.55;14.10;;;;;;;;;;4164697;34;20213;-57
2020/12/11 08:56:04;;;;;;;22.87;15.20;;;;;;;;;;4164623;34;20130;-57
2020/12/11 08:58:30;;;;;;;24.17;16.92;;;;;;;;;;4164458;34;20138;-57
2020/12/11 09:00:56;;;;;;;25.83;16.60;;;;;;;;;;4164421;34;20464;-57
2020/12/11 09:03:22;;;;;;;23.87;15.50;;;;;;;;;;4164793;34;20278;-55
2020/12/11 09:05:48;;;;;;;25.00;16.98;;;;;;;;;;4164410;34;20107;-56
2020/12/11 09:08:14;;;;;;;25.23;15.80;;;;;;;;;;4164481;34;20106;-57
2020/12/11 09:10:40;;;;;;;20.48;15.27;;;;;;;;;;4164477;34;20511;-56
2020/12/11 09:13:07;;;;;;;21.75;15.85;;;;;;;;;;4164444;34;20229;-57
2020/12/11 09:15:33;;;;;;;23.50;16.62;;;;;;;;;;4164338;34;20095;-56
2020/12/11 09:17:59;;;;;;;24.63;16.92;;;;;;;;;;4164294;34;20112;-57
2020/12/11 09:20:24;;;;;;;21.70;16.92;;;;;;;;;;4164253;34;20202;-57
2020/12/11 09:22:50;;;;;;;30.10;17.85;;;;;;;;;;4164232;34;20122;-59
2020/12/11 09:25:17;;;;;;;25.30;18.37;;;;;;;;;;4164142;34;20119;-58
2020/12/11 09:27:44;;;;;;;23.23;16.80;;;;;;;;;;4164359;34;20111;-58
2020/12/11 09:30:28;;;;;;;19.87;16.60;;;;;;;;;;4164245;34;20215;-59
2020/12/11 09:35:25;;;;;;;22.05;17.92;;;;;;;;;;4164153;34;20115;-59
2020/12/11 09:37:51;;;;;;;24.15;17.05;;;;;;;;;;4164131;34;20626;-58
2020/12/11 09:40:47;;;;;;;27.27;18.20;;;;;;;;;;4164037;34;20128;-58
2020/12/11 09:56:25;;;;;;;28.10;18.10;;;;;;;;;;4164045;34;20503;-57
2020/12/11 09:58:55;;;;;;;26.52;18.33;;;;;;;;;;4163768;34;20116;-59
2020/12/11 10:01:45;;;;;;;26.52;19.10;;;;;;;;;;4164185;34;20118;-58
2020/12/11 10:04:11;;;;;;;25.05;18.62;;;;;;;;;;4163797;34;20106;-56
2020/12/11 10:06:37;;;;;;;22.77;17.98;;;;;;;;;;4164241;34;20145;-56
2020/12/11 10:09:03;;;;;;;29.45;19.48;;;;;;;;;;4163761;34;20524;-57
2020/12/11 10:11:29;;;;;;;31.45;19.90;;;;;;;;;;4163841;34;20140;-58
2020/12/11 10:14:13;;;;;;;26.98;17.92;;;;;;;;;;4163785;34;20122;-58
2020/12/11 10:16:40;;;;;;;25.70;18.05;;;;;;;;;;4163950;34;20119;-58
2020/12/11 10:19:06;;;;;;;25.33;17.35;;;;;;;;;;4164036;34;20123;-58
2020/12/11 10:21:32;;;;;;;24.52;17.60;;;;;;;;;;4163783;34;20444;-59
2020/12/11 10:23:58;;;;;;;26.92;18.52;;;;;;;;;;4163582;34;20105;-61
2020/12/11 10:26:24;;;;;;;28.08;17.55;;;;;;;;;;4161898;34;20203;-60
2020/12/11 10:28:50;;;;;;;23.98;16.85;;;;;;;;;;4163519;34;20145;-59
2020/12/11 10:31:16;;;;;;;26.60;17.02;;;;;;;;;;4163574;34;20129;-60
2020/12/11 10:33:42;;;;;;;25.33;16.37;;;;;;;;;;4163619;34;20233;-55
2020/12/11 10:36:08;;;;;;;20.40;16.23;;;;;;;;;;4163801;34;20102;-58
2020/12/11 10:38:34;;;;;;;19.87;13.52;;;;;;;;;;4163213;34;20215;-55
2020/12/11 10:41:00;;;;;;;16.42;11.73;;;;;;;;;;4163241;34;20107;-59
2020/12/11 10:43:26;;;;;;;13.35;10.88;;;;;;;;;;4163975;34;20134;-57
2020/12/11 10:45:52;;;;;;;12.10;10.10;;;;;;;;;;4163960;34;20146;-58
2020/12/11 10:48:17;;;;;;;13.55;10.50;;;;;;;;;;4165509;34;20115;-57
2020/12/11 10:50:43;;;;;;;16.73;10.77;;;;;;;;;;4163452;34;20467;-56
2020/12/11 10:53:09;;;;;;;14.68;9.98;;;;;;;;;;4163063;34;20099;-56
2020/12/11 10:55:35;;;;;;;16.20;9.98;;;;;;;;;;4163735;34;20091;-58
2020/12/11 10:58:01;;;;;;;18.80;10.25;;;;;;;;;;4163330;34;20199;-56
2020/12/11 11:00:27;;;;;;;17.92;9.90;;;;;;;;;;4163030;34;20123;-57
2020/12/11 11:02:52;;;;;;;12.63;9.45;;;;;;;;;;4163397;34;20138;-58
2020/12/11 11:05:18;;;;;;;11.80;10.60;;;;;;;;;;4163276;34;20559;-58
2020/12/11 11:07:44;;;;;;;14.15;10.40;;;;;;;;;;4163393;34;20503;-57
2020/12/11 11:12:55;;;;;;;18.40;10.95;;;;;;;;;;4163409;34;20580;-57
2020/12/11 11:18:26;;;;;;;12.37;10.70;;;;;;;;;;4160304;34;20214;-60
2020/12/11 11:21:11;;;;;;;17.08;10.45;;;;;;;;;;4163184;34;20630;-59
2020/12/11 11:28:35;;;;;;;15.57;10.85;;;;;;;;;;4162860;34;20150;-61
2020/12/11 11:31:01;;;;;;;14.50;11.52;;;;;;;;;;4163261;34;20614;-60
2020/12/11 11:33:26;;;;;;;22.30;12.25;;;;;;;;;;4162796;34;20295;-61
2020/12/11 11:35:52;;;;;;;15.35;11.75;;;;;;;;;;4163312;34;20129;-60
2020/12/11 11:38:19;;;;;;;13.85;11.27;;;;;;;;;;4162870;34;20095;-60
2020/12/11 11:40:47;;;;;;;20.60;11.73;;;;;;;;;;4163005;34;20107;-62
2020/12/11 11:43:15;;;;;;;15.15;11.85;;;;;;;;;;4162844;34;20130;-60
2020/12/11 11:45:41;;;;;;;15.32;11.27;;;;;;;;;;4162909;34;20210;-60
2020/12/11 11:48:13;;;;;;;15.43;11.05;;;;;;;;;;4162778;34;20129;-62
2020/12/11 11:53:13;;;;;;;18.02;12.23;;;;;;;;;;4162200;34;20111;-59
2020/12/11 11:55:40;;;;;;;18.37;12.05;;;;;;;;;;4174761;34;20458;-58
2020/12/11 11:58:06;;;;;;;16.02;12.68;;;;;;;;;;4165908;34;20241;-59
2020/12/11 12:00:32;;;;;;;16.15;12.77;;;;;;;;;;4162895;34;20625;-58
2020/12/11 12:02:58;;;;;;;17.20;12.40;;;;;;;;;;4162778;34;20559;-58
2020/12/11 12:05:24;;;;;;;18.23;12.25;;;;;;;;;;4162654;34;20535;-58
2020/12/11 12:07:50;;;;;;;20.95;12.98;;;;;;;;;;4162649;34;20119;-58
2020/12/11 12:10:16;;;;;;;19.92;13.55;;;;;;;;;;4161421;34;20106;-58
2020/12/11 12:12:43;;;;;;;18.33;12.65;;;;;;;;;;4163875;34;20122;-59
2020/12/11 12:15:18;;;;;;;16.08;13.27;;;;;;;;;;4164549;34;20102;-60
2020/12/11 12:18:06;;;;;;;18.00;14.13;;;;;;;;;;4164746;34;20117;-59
2020/12/11 12:20:46;;;;;;;25.02;15.68;;;;;;;;;;4164694;34;20205;-59
2020/12/11 12:31:16;;;;;;;18.33;14.07;;;;;;;;;;4157675;34;20134;-58
2020/12/11 12:44:21;;;;;;;20.92;14.45;;;;;;;;;;4164739;34;20114;-58
2020/12/11 12:46:47;;;;;;;21.33;13.80;;;;;;;;;;4164582;34;20291;-58
2020/12/11 12:49:13;;;;;;;22.08;15.15;;;;;;;;;;4164610;34;20127;-57
2020/12/11 12:51:39;;;;;;;23.17;15.85;;;;;;;;;;4164644;34;20189;-60
2020/12/11 12:54:05;;;;;;;22.40;15.50;;;;;;;;;;4152049;34;20522;-59
2020/12/11 12:56:39;;;;;;;21.55;15.07;;;;;;;;;;4165612;34;20199;-58
2020/12/11 12:59:43;;;;;;;31.20;18.70;;;;;;;;;;4177936;34;20546;-57
2020/12/11 13:02:23;;;;;;;21.98;15.98;;;;;;;;;;4176313;34;20230;-60
2020/12/11 13:05:10;;;;;;;25.08;17.05;;;;;;;;;;4177803;34;20245;-60
2020/12/11 13:07:36;;;;;;;22.73;16.70;;;;;;;;;;4177049;34;20102;-59
2020/12/11 13:10:05;;;;;;;19.37;15.75;;;;;;;;;;4178197;34;20211;-59
2020/12/11 13:12:31;;;;;;;17.17;15.32;;;;;;;;;;4177926;34;20109;-57
2020/12/11 13:14:57;;;;;;;19.98;14.70;;;;;;;;;;4177674;34;20126;-58
2020/12/11 13:17:23;;;;;;;20.12;14.98;;;;;;;;;;4177743;34;20110;-58
2020/12/11 13:19:50;;;;;;;22.17;15.45;;;;;;;;;;4177977;34;20106;-57
2020/12/11 13:27:45;;;;;;;25.75;21.70;;;;;;;;;;4177631;34;20171;-58
2020/12/11 13:30:12;;;;;;;29.08;24.12;;;;;;;;;;4177687;34;20131;-58
2020/12/11 13:32:38;;;;;;;29.63;23.42;;;;;;;;;;4177687;34;20536;-58
2020/12/11 13:35:04;;;;;;;25.25;21.20;;;;;;;;;;4177986;34;20189;-58
2020/12/11 13:37:30;;;;;;;27.30;22.55;;;;;;;;;;4177688;34;20115;-58
2020/12/11 13:40:00;;;;;;;34.83;24.15;;;;;;;;;;4178052;34;20107;-57
2020/12/11 13:42:26;;;;;;;36.80;30.40;;;;;;;;;;4177798;34;20129;-57
2020/12/11 13:44:52;;;;;;;30.70;26.30;;;;;;;;;;4177620;34;20509;-56
2020/12/11 13:47:18;;;;;;;33.85;29.00;;;;;;;;;;4177990;34;20107;-57
2020/12/11 13:49:44;;;;;;;43.92;33.15;;;;;;;;;;4177489;34;20178;-55
2020/12/11 13:52:10;;;;;;;39.25;31.58;;;;;;;;;;4177692;34;20132;-55
2020/12/11 13:54:36;;;;;;;40.15;28.38;;;;;;;;;;4164846;34;20217;-56
2020/12/11 13:57:02;;;;;;;28.80;23.83;;;;;;;;;;4177695;34;20587;-56
2020/12/11 13:59:31;;;;;;;25.23;21.12;;;;;;;;;;4177565;34;20118;-54
2020/12/11 14:01:57;;;;;;;23.87;16.83;;;;;;;;;;4165247;34;20116;-55
2020/12/11 14:04:23;;;;;;;20.62;16.25;;;;;;;;;;4164606;34;20217;-58
2020/12/11 14:06:49;;;;;;;20.40;16.77;;;;;;;;;;4177864;34;20126;-54
2020/12/11 14:09:14;;;;;;;18.42;15.85;;;;;;;;;;4177688;34;20125;-54
2020/12/11 14:11:40;;;;;;;22.87;17.15;;;;;;;;;;4177551;34;20099;-55
2020/12/11 14:14:06;;;;;;;24.80;17.52;;;;;;;;;;4177678;34;20210;-56
2020/12/11 14:24:12;;;;;;;25.80;20.70;;;;;;;;;;4177277;34;20133;-54
2020/12/11 14:26:42;;;;;;;31.70;24.95;;;;;;;;;;4177300;34;20122;-53
2020/12/11 14:29:08;;;;;;;34.17;27.25;;;;;;;;;;4177233;34;20230;-58
2020/12/11 14:31:34;;;;;;;34.90;27.13;;;;;;;;;;4177367;34;20110;-58
2020/12/11 14:34:06;;;;;;;35.42;27.75;;;;;;;;;;4169489;34;20532;-56
2020/12/11 14:36:37;;;;;;;31.27;24.20;;;;;;;;;;4150229;34;20109;-60
2020/12/11 14:41:29;;;;;;;22.35;16.58;;;;;;;;;;4163978;34;20126;-49
2020/12/11 14:43:55;;;;;;;17.52;15.10;;;;;;;;;;4163481;34;20118;-54
2020/12/11 14:46:25;;;;;;;18.80;15.48;;;;;;;;;;4151030;34;20223;-51
2020/12/11 14:48:52;;;;;;;18.67;16.67;;;;;;;;;;4163538;34;20198;-52
2020/12/11 14:51:18;;;;;;;23.73;17.05;;;;;;;;;;4163579;34;20282;-53
2020/12/11 14:53:44;;;;;;;27.45;22.65;;;;;;;;;;4163414;34;20226;-54
2020/12/11 14:56:10;;;;;;;23.90;19.62;;;;;;;;;;4150915;34;20143;-55
2020/12/11 14:58:36;;;;;;;20.12;16.20;;;;;;;;;;4163258;34;20122;-54
2020/12/11 15:01:02;;;;;;;19.12;15.32;;;;;;;;;;4163509;34;20651;-53
2020/12/11 15:03:28;;;;;;;17.73;14.32;;;;;;;;;;4163743;34;20321;-52
2020/12/11 15:05:56;;;;;;;13.65;12.20;;;;;;;;;;4163191;34;20515;-57
2020/12/11 15:08:22;;;;;;;17.90;14.45;;;;;;;;;;4163441;34;20545;-48
2020/12/11 15:10:48;;;;;;;15.70;14.05;;;;;;;;;;4163338;34;20113;-55
2020/12/11 15:13:14;;;;;;;15.88;14.18;;;;;;;;;;4163369;34;20198;-53
2020/12/11 15:15:40;;;;;;;19.08;13.80;;;;;;;;;;4173228;34;20106;-50
2020/12/11 15:18:06;;;;;;;17.83;15.10;;;;;;;;;;4163222;34;20185;-51
2020/12/11 15:20:31;;;;;;;17.20;14.35;;;;;;;;;;4163469;34;20239;-55
2020/12/11 15:22:58;;;;;;;15.73;14.00;;;;;;;;;;4163529;34;20515;-53
2020/12/11 15:25:25;;;;;;;17.73;15.10;;;;;;;;;;4163103;34;20554;-56
2020/12/11 15:27:50;;;;;;;20.65;17.25;;;;;;;;;;4163061;34;20122;-49
2020/12/11 15:30:16;;;;;;;29.80;25.08;;;;;;;;;;4163202;34;20122;-57
2020/12/11 15:32:42;;;;;;;27.98;24.55;;;;;;;;;;4163444;34;20129;-53
2020/12/11 15:35:08;;;;;;;24.83;22.17;;;;;;;;;;4163346;34;20129;-56